EGXW - Wainfleet
Distance from station: E 5mi, 14km
Updated: 10/23/2017 4:50pm
Mist, Mostly cloudy
Mist, Mostly cloudy
 Wind from SW
Wind: SW 9 mph , 15 km/h
Temperature: 57°F , 14°C
Dew Point: 55°F , 13°C
Humidity: 94%
Barometer: 29.97 inHg , 1015 hPa
Summary: Mist
Clouds: Mostly Cloudy
Visibility: 5 miles , 8 km
Cloud details: Mostly Cloudy 900 ft
2017/10/23 23:50 EGXW 232350Z 23008KT 8000 BR BKN009 14/13 Q1015 GRN